URMT

Stavropol Shpakovskoye Airport

Stavropol, Russian Federation
TAF URMT 212000Z 2121/2206 28004G09MPS 9999 SCT020 PROB40 TEMPO 2200/2206 -TSRA SCT020CB
Issued Valid From Valid To
Jul-21 @ 20:00 UTC
(3 hours ago)
Jul-21 @ 21:00 UTC
(2 hours ago)
Jul-22 @ 06:00 UTC
(in 7 hours)
Jul-21 @ 21:00 to Jul-22 @ 06:00
TAF URMT 212000Z 2121/2206 28004G09MPS 9999 SCT020
Wind Visibility Clouds
280° at 8 knots
 Gusting to 17 knots
10,000+ meters
  • Scattered at 2,000' AGL
Temporary  (Probability 40%) Jul-22 @ 00:00 to Jul-22 @ 06:00
PROB40 TEMPO 2200/2206 -TSRA SCT020CB
Clouds Conditions
  • Scattered at 2,000' AGL
  • Light Thunderstorm
  • Light Rain
TAF URMT 212000Z 2121/2206 28004G09MPS 9999 SCT020 PROB40 TEMPO 2200/2206 -TSRA SCT020CB
Issued Jul-21 @ 20:00 UTC
(3 hours ago)
Valid From Jul-21 @ 21:00 UTC
(2 hours ago)
Valid To Jul-22 @ 06:00 UTC
(in 7 hours)
Jul-21 @ 21:00 - Jul-22 @ 06:00
Wind Visibility
280° at 8 knots
 Gusting to 17 knots
10,000+ meters
Clouds
  • Scattered at 2,000' AGL
Probability 40% Temporary Jul-22 @ 00:00 - Jul-22 @ 06:00
Clouds
  • Scattered at 2,000' AGL
Conditions
  • Light Thunderstorm
  • Light Rain